Time;durP1;ratioP1;P1;durP2;ratioP2;P2;SDS_P1;SDS_P2;PMS_P1;PMS_P2;Temp;Humidity;BMP_temperature;BMP_pressure;BME280_temperature;BME280_humidity;BME280_pressure;Samples;Min_cycle;Max_cycle;Signal;HPM_P1;HPM_P2
2023/08/06 00:02:33;;;;;;;16.92;8.70;;;;;;;22.66;86.54;99033.56;5457034;32;34658;-75
2023/08/06 00:05:35;;;;;;;13.02;8.23;;;;;;;22.24;87.03;99041.81;5449380;32;34316;-68
2023/08/06 00:08:38;;;;;;;11.93;8.00;;;;;;;23.38;78.75;99033.56;5458498;32;35283;-67
2023/08/06 00:11:41;;;;;;;12.40;8.40;;;;;;;23.49;77.18;99037.69;5457332;32;35276;-79
2023/08/06 00:14:43;;;;;;;13.63;8.77;;;;;;;23.50;77.08;99042.88;5459235;32;34246;-79
2023/08/06 00:17:45;;;;;;;;;;;;;;;22.45;82.85;99052.00;5442370;32;34729;-67
2023/08/06 00:20:48;;;;;;;13.17;9.07;;;;;;;22.95;82.37;99049.13;5463934;32;34356;-79
2023/08/06 00:23:50;;;;;;;17.17;9.68;;;;;;;23.02;80.32;99059.16;5439790;32;35288;-79
2023/08/06 00:26:52;;;;;;;14.02;9.35;;;;;;;22.54;83.63;99055.50;5440179;32;34782;-79
2023/08/06 00:29:54;;;;;;;13.82;8.88;;;;;;;23.43;78.97;99059.84;5458368;32;35065;-75
2023/08/06 00:32:57;;;;;;;15.23;9.25;;;;;;;23.35;78.15;99051.84;5443579;32;35262;-65
2023/08/06 00:35:59;;;;;;;13.65;9.13;;;;;;;22.83;81.76;99052.31;5453057;32;35033;-66
2023/08/06 00:39:01;;;;;;;12.48;8.95;;;;;;;22.69;82.23;99053.84;5448616;32;34578;-65
2023/08/06 00:42:04;;;;;;;;;;;;;;;22.60;82.80;99044.12;5454666;32;34455;-75
2023/08/06 00:45:06;;;;;;;13.80;8.73;;;;;;;22.55;83.80;99017.06;5457557;32;34432;-79
2023/08/06 00:48:08;;;;;;;14.45;8.77;;;;;;;22.41;83.15;99006.03;5453673;32;35061;-76
2023/08/06 00:51:11;;;;;;;14.13;8.85;;;;;;;21.55;89.82;99009.09;5455754;32;34890;-77
2023/08/06 00:54:13;;;;;;;16.55;9.10;;;;;;;21.63;91.86;99005.59;5442477;32;34572;-67
2023/08/06 00:57:15;;;;;;;;;;;;;;;21.89;89.54;99008.13;5452947;32;34680;-80
2023/08/06 01:00:19;;;;;;;13.38;8.68;;;;;;;22.01;88.55;98997.97;5442372;32;34675;-75
2023/08/06 01:03:21;;;;;;;13.67;9.00;;;;;;;22.54;86.32;98993.94;5454067;32;34762;-79
2023/08/06 01:07:12;;;;;;;15.82;9.40;;;;;;;21.66;90.61;98996.44;5445316;32;34096;-78
2023/08/06 01:11:00;;;;;;;15.77;9.30;;;;;;;22.57;86.01;98990.94;5402386;32;34573;-79
2023/08/06 01:14:08;;;;;;;12.17;8.10;;;;;;;23.01;82.79;98987.84;5452818;32;34642;-67
2023/08/06 01:17:10;;;;;;;10.25;5.70;;;;;;;22.86;82.64;98984.97;5450726;32;35634;-80
2023/08/06 01:20:12;;;;;;;;;;;;;;;21.58;86.68;98987.41;5433466;32;34652;-78
2023/08/06 01:23:14;;;;;;;10.27;5.50;;;;;;;21.32;90.70;98981.31;5445816;32;34717;-78
2023/08/06 01:26:47;;;;;;;10.32;5.00;;;;;;;21.65;88.02;98970.69;5455953;32;35029;-66
2023/08/06 01:30:00;;;;;;;7.75;5.43;;;;;;;21.80;87.18;98974.38;5458208;32;34988;-66
2023/08/06 01:33:05;;;;;;;9.13;5.00;;;;;;;21.87;88.49;98980.72;5432882;32;34363;-78
2023/08/06 01:36:08;;;;;;;8.43;4.90;;;;;;;21.65;87.47;98971.53;5456425;32;35528;-67
2023/08/06 01:39:10;;;;;;;;;;;;;;;21.78;87.15;98971.03;5438701;32;34280;-75
2023/08/06 01:42:12;;;;;;;8.10;4.83;;;;;;;21.68;88.12;98965.00;5442107;32;34773;-67
2023/08/06 01:45:14;;;;;;;8.80;5.47;;;;;;;22.28;84.61;98954.81;5458401;32;35339;-68
2023/08/06 01:48:16;;;;;;;9.68;5.28;;;;;;;22.34;84.08;98961.34;5447497;32;34549;-68
2023/08/06 01:51:19;;;;;;;8.13;4.62;;;;;;;22.51;82.70;98959.47;5459663;32;35052;-67
2023/08/06 01:54:22;;;;;;;8.38;5.07;;;;;;;22.46;82.26;98953.81;5448870;32;35335;-79
2023/08/06 01:57:25;;;;;;;7.47;4.50;;;;;;;22.49;83.10;98937.41;5421825;32;34551;-67
2023/08/06 02:00:28;;;;;;;8.50;4.50;;;;;;;21.60;86.05;98939.94;5454545;32;34868;-79
2023/08/06 02:03:30;;;;;;;7.20;4.33;;;;;;;21.89;85.87;98933.25;5447245;32;34831;-79
2023/08/06 02:06:33;;;;;;;5.70;3.92;;;;;;;21.48;88.09;98927.06;5456826;32;34259;-75
2023/08/06 02:09:35;;;;;;;6.10;3.97;;;;;;;21.24;88.92;98915.28;5450900;32;35112;-67
2023/08/06 02:12:37;;;;;;;6.95;4.07;;;;;;;20.91;90.33;98911.69;5450991;32;34830;-68
2023/08/06 02:15:43;;;;;;;9.02;5.12;;;;;;;21.18;89.18;98915.94;5452514;32;34841;-67
2023/08/06 02:18:46;;;;;;;7.80;4.63;;;;;;;21.47;87.83;98910.19;5440411;32;34090;-78
2023/08/06 02:21:48;;;;;;;9.77;4.60;;;;;;;21.07;90.60;98903.72;5451872;32;34676;-78
2023/08/06 02:24:50;;;;;;;8.60;4.47;;;;;;;21.58;86.11;98896.50;5450523;32;34597;-76
2023/08/06 02:27:52;;;;;;;8.85;4.50;;;;;;;21.75;86.27;98886.63;5453834;32;34825;-67
2023/08/06 02:30:54;;;;;;;7.95;4.22;;;;;;;21.39;87.24;98895.97;5438895;32;35568;-67
2023/08/06 02:33:58;;;;;;;9.52;3.95;;;;;;;21.37;88.44;98893.44;5458783;32;34686;-68
2023/08/06 02:37:00;;;;;;;8.43;4.37;;;;;;;21.90;84.46;98879.63;5448994;32;34378;-67
2023/08/06 02:40:03;;;;;;;6.45;3.87;;;;;;;21.83;85.28;98878.63;5459242;32;35318;-67
2023/08/06 02:43:05;;;;;;;5.32;3.25;;;;;;;21.92;83.77;98870.59;5435569;32;34612;-76
2023/08/06 02:46:08;;;;;;;7.85;3.80;;;;;;;21.46;87.36;98865.75;5426889;32;34725;-78
2023/08/06 02:49:10;;;;;;;15.85;7.25;;;;;;;21.53;87.93;98865.91;5431849;32;34965;-79
2023/08/06 02:52:12;;;;;;;8.43;4.35;;;;;;;21.70;86.72;98882.78;5450943;32;34470;-67
2023/08/06 02:55:14;;;;;;;8.68;5.07;;;;;;;21.55;87.96;98887.97;5445792;32;34144;-67
2023/08/06 02:58:17;;;;;;;10.10;6.05;;;;;;;21.89;84.51;98879.75;5448648;32;34565;-77
2023/08/06 03:01:19;;;;;;;;;;;;;;;22.03;85.44;98870.25;5455775;32;34993;-74
2023/08/06 03:04:21;;;;;;;9.10;5.43;;;;;;;22.71;80.42;98859.84;5453593;32;34516;-66
2023/08/06 03:07:23;;;;;;;10.48;5.32;;;;;;;22.62;79.28;98863.56;5448077;32;34855;-78
2023/08/06 03:10:25;;;;;;;11.02;5.72;;;;;;;22.31;82.70;98870.69;5462839;32;34640;-66
2023/08/06 03:13:28;;;;;;;8.40;5.60;;;;;;;22.20;80.83;98866.53;5448069;32;34768;-66
2023/08/06 03:16:30;;;;;;;9.27;5.65;;;;;;;21.89;83.52;98861.03;5457154;32;35014;-66
2023/08/06 03:19:32;;;;;;;14.13;5.37;;;;;;;22.52;79.99;98862.09;5453184;32;34367;-67
2023/08/06 03:22:34;;;;;;;9.70;5.22;;;;;;;21.89;81.98;98866.37;5453437;32;34581;-77
2023/08/06 03:25:36;;;;;;;8.93;5.57;;;;;;;21.27;87.29;98872.22;5459107;32;34998;-67
2023/08/06 03:28:38;;;;;;;10.55;4.90;;;;;;;21.53;86.44;98869.44;5451343;32;34145;-77
2023/08/06 03:31:41;;;;;;;8.45;5.25;;;;;;;22.13;81.34;98862.88;5435936;32;34947;-79
2023/08/06 03:34:46;;;;;;;7.87;4.47;;;;;;;21.88;81.20;98865.56;5453697;32;34651;-79
2023/08/06 03:37:49;;;;;;;10.43;4.80;;;;;;;22.55;76.62;98862.59;5454250;32;35375;-67
2023/08/06 03:40:51;;;;;;;8.80;4.72;;;;;;;22.02;79.45;98853.31;5450666;32;34282;-78
2023/08/06 03:43:54;;;;;;;11.63;5.00;;;;;;;21.58;82.37;98861.75;5453417;32;34984;-78
2023/08/06 03:46:56;;;;;;;8.23;4.47;;;;;;;21.80;80.85;98856.72;5442947;32;34740;-67
2023/08/06 03:49:58;;;;;;;9.73;4.97;;;;;;;21.13;83.77;98866.69;5455444;32;35060;-67
2023/08/06 03:53:00;;;;;;;8.75;5.00;;;;;;;21.57;83.36;98861.88;5449834;32;34560;-78
2023/08/06 03:56:03;;;;;;;8.45;4.20;;;;;;;21.84;79.23;98855.38;5459085;32;34251;-67
2023/08/06 03:59:05;;;;;;;8.75;4.50;;;;;;;21.48;82.00;98858.37;5454934;32;34711;-79
2023/08/06 04:02:10;;;;;;;7.50;3.73;;;;;;;21.91;78.46;98853.69;5454184;32;34959;-66
2023/08/06 04:05:12;;;;;;;7.10;4.25;;;;;;;21.36;80.74;98863.22;5456995;32;34284;-75
2023/08/06 04:08:14;;;;;;;7.40;4.25;;;;;;;21.12;82.40;98867.66;5437782;32;34516;-78
2023/08/06 04:11:16;;;;;;;9.65;4.55;;;;;;;21.15;82.84;98859.34;5445766;32;35080;-77
2023/08/06 04:14:18;;;;;;;8.68;4.75;;;;;;;21.02;82.29;98857.97;5456478;32;35090;-67
2023/08/06 04:17:21;;;;;;;8.88;4.30;;;;;;;21.18;81.90;98856.31;5454103;32;34828;-67
2023/08/06 04:20:23;;;;;;;7.07;4.22;;;;;;;20.90;83.75;98853.94;5444411;32;34217;-78
2023/08/06 04:23:26;;;;;;;7.47;4.25;;;;;;;21.41;78.44;98846.69;5434623;32;34377;-75
2023/08/06 04:26:28;;;;;;;7.65;4.28;;;;;;;21.39;78.98;98840.69;5459794;32;34722;-78
2023/08/06 04:29:30;;;;;;;7.70;4.30;;;;;;;21.01;81.96;98840.28;5442002;32;34182;-66
2023/08/06 04:32:33;;;;;;;8.25;3.95;;;;;;;21.21;78.78;98846.16;5438373;32;34730;-67
2023/08/06 04:35:35;;;;;;;7.47;4.50;;;;;;;21.25;78.71;98854.66;5452515;32;35487;-66
2023/08/06 04:38:38;;;;;;;9.00;4.22;;;;;;;21.43;76.72;98846.53;5449100;32;34475;-66
2023/08/06 04:41:40;;;;;;;;;;;;;;;20.84;81.54;98849.22;5460992;32;34232;-66
2023/08/06 04:44:42;;;;;;;7.60;3.40;;;;;;;20.89;77.45;98846.09;5452498;32;34593;-79
2023/08/06 04:47:44;;;;;;;6.37;3.17;;;;;;;20.49;81.20;98837.78;5453260;32;34881;-80
2023/08/06 04:50:49;;;;;;;6.95;3.28;;;;;;;20.26;82.86;98844.63;5444100;32;34645;-67
2023/08/06 04:53:51;;;;;;;6.27;3.00;;;;;;;20.49;80.12;98844.97;5451406;32;35004;-80
2023/08/06 04:56:53;;;;;;;6.25;2.62;;;;;;;20.38;82.83;98837.19;5457089;32;34558;-68
2023/08/06 04:59:55;;;;;;;6.07;2.40;;;;;;;20.74;79.18;98836.03;5458711;32;34698;-66
2023/08/06 05:03:00;;;;;;;3.83;2.05;;;;;;;20.12;82.75;98832.72;5455152;32;34362;-78
2023/08/06 05:06:02;;;;;;;2.10;1.47;;;;;;;20.25;81.53;98827.78;5442460;32;34134;-75
2023/08/06 05:09:05;;;;;;;2.70;0.90;;;;;;;19.89;82.86;98835.06;5453989;32;34063;-68
2023/08/06 05:12:08;;;;;;;1.47;0.80;;;;;;;20.13;80.32;98830.91;5456124;32;34836;-78
2023/08/06 05:15:10;;;;;;;2.37;0.82;;;;;;;19.39;83.37;98825.03;5458452;32;34322;-66
2023/08/06 05:18:12;;;;;;;0.52;0.50;;;;;;;19.36;81.96;98814.66;5442508;32;34662;-67
2023/08/06 05:21:16;;;;;;;0.98;0.57;;;;;;;19.85;81.41;98825.75;5441868;32;34046;-66
2023/08/06 05:24:18;;;;;;;0.77;0.30;;;;;;;19.71;79.80;98824.47;5457345;32;35384;-78
2023/08/06 05:27:23;;;;;;;0.47;0.47;;;;;;;19.91;78.58;98830.44;5450727;32;34553;-78
2023/08/06 05:30:26;;;;;;;0.32;0.32;;;;;;;20.01;77.16;98835.66;5451003;32;35744;-66
2023/08/06 05:33:28;;;;;;;0.40;0.40;;;;;;;20.57;73.09;98826.28;5455412;32;34975;-67
2023/08/06 05:36:30;;;;;;;0.35;0.30;;;;;;;20.50;74.11;98831.44;5440158;32;34661;-67
2023/08/06 05:39:32;;;;;;;1.02;0.60;;;;;;;20.94;72.41;98831.25;5456488;32;34636;-68
2023/08/06 05:42:34;;;;;;;0.25;0.25;;;;;;;20.15;73.49;98827.06;5452817;32;34127;-68
2023/08/06 05:45:36;;;;;;;1.40;0.50;;;;;;;20.06;76.98;98822.69;5462951;32;35171;-78
2023/08/06 05:48:39;;;;;;;0.90;0.30;;;;;;;20.55;72.96;98810.44;5403721;32;32962;-74
2023/08/06 05:51:41;;;;;;;0.90;0.40;;;;;;;19.61;77.24;98817.56;5449866;32;35058;-78
2023/08/06 05:54:44;;;;;;;3.45;0.45;;;;;;;19.93;76.72;98815.12;5444786;32;35304;-78
2023/08/06 05:57:46;;;;;;;0.98;0.68;;;;;;;19.65;79.15;98814.44;5449625;32;34190;-67
2023/08/06 06:00:48;;;;;;;1.45;0.70;;;;;;;19.98;78.18;98810.16;5462515;32;35572;-78
2023/08/06 06:03:50;;;;;;;1.23;0.30;;;;;;;20.17;76.69;98814.44;5435979;32;35492;-66
2023/08/06 06:06:52;;;;;;;3.72;0.65;;;;;;;20.40;75.77;98809.34;5450908;32;34686;-66
2023/08/06 06:09:54;;;;;;;0.95;0.50;;;;;;;19.66;77.76;98799.28;5442129;32;34627;-79
2023/08/06 06:12:57;;;;;;;0.22;0.20;;;;;;;20.35;75.11;98809.00;5448560;32;35223;-67
2023/08/06 06:15:59;;;;;;;0.98;0.50;;;;;;;19.56;77.35;98798.50;5458576;32;34028;-67
2023/08/06 06:19:01;;;;;;;0.73;0.40;;;;;;;19.30;80.16;98803.78;5449609;32;35454;-78
2023/08/06 06:22:03;;;;;;;0.43;0.40;;;;;;;20.10;74.82;98805.37;5456469;32;34896;-67
2023/08/06 06:25:06;;;;;;;4.30;1.40;;;;;;;20.28;73.65;98810.63;5455064;32;34155;-66
2023/08/06 06:28:08;;;;;;;0.55;0.25;;;;;;;19.70;75.81;98803.28;5450567;32;34679;-80
2023/08/06 06:31:10;;;;;;;2.17;0.60;;;;;;;19.57;76.01;98813.50;5444698;32;34618;-65
2023/08/06 06:34:13;;;;;;;2.40;0.50;;;;;;;20.29;72.24;98821.16;5448536;32;34563;-66
2023/08/06 06:37:15;;;;;;;0.47;0.40;;;;;;;19.98;73.12;98828.81;5449573;32;34256;-79
2023/08/06 06:40:18;;;;;;;1.52;0.60;;;;;;;20.44;71.66;98832.06;5415123;32;34828;-78
2023/08/06 06:43:20;;;;;;;0.43;0.43;;;;;;;20.58;70.98;98849.31;5437272;32;34192;-80
2023/08/06 06:46:22;;;;;;;2.15;1.87;;;;;;;20.78;69.50;98841.87;5453454;32;35335;-66
2023/08/06 06:49:24;;;;;;;0.52;0.52;;;;;;;19.79;72.86;98845.03;5451813;32;34102;-79
2023/08/06 06:52:29;;;;;;;0.60;0.57;;;;;;;20.08;73.27;98843.88;5447177;32;34648;-67
2023/08/06 06:55:31;;;;;;;0.60;0.60;;;;;;;20.08;72.72;98839.38;5441890;32;34476;-67
2023/08/06 06:58:34;;;;;;;1.83;0.70;;;;;;;19.99;73.09;98827.81;5449206;32;34741;-75
2023/08/06 07:01:36;;;;;;;0.70;0.70;;;;;;;19.75;73.53;98825.00;5426556;32;34289;-79
2023/08/06 07:04:38;;;;;;;3.80;0.80;;;;;;;20.42;71.43;98827.87;5454468;32;34160;-78
2023/08/06 07:07:40;;;;;;;0.73;0.73;;;;;;;19.76;74.04;98821.31;5449672;32;35390;-67
2023/08/06 07:10:43;;;;;;;2.55;1.70;;;;;;;19.72;74.80;98820.00;5458175;32;33976;-66
2023/08/06 07:13:45;;;;;;;2.85;0.65;;;;;;;19.71;75.51;98831.66;5436702;32;35160;-80
2023/08/06 07:16:47;;;;;;;0.60;0.60;;;;;;;19.86;73.53;98838.06;5452883;32;34417;-79
2023/08/06 07:19:49;;;;;;;1.02;0.80;;;;;;;19.75;72.69;98849.81;5444372;32;35178;-67
2023/08/06 07:22:52;;;;;;;2.17;0.60;;;;;;;19.72;74.61;98860.81;5446058;32;34907;-78
2023/08/06 07:25:54;;;;;;;0.70;0.70;;;;;;;20.05;71.86;98874.34;5451953;32;35253;-75
2023/08/06 07:28:56;;;;;;;0.40;0.40;;;;;;;19.20;74.74;98878.47;5447610;32;34315;-79
2023/08/06 07:31:58;;;;;;;0.52;0.50;;;;;;;19.42;74.12;98872.66;5440297;32;34761;-79
2023/08/06 07:35:02;;;;;;;0.90;0.60;;;;;;;19.65;73.98;98859.75;5451550;32;35369;-76
2023/08/06 07:38:05;;;;;;;0.87;0.50;;;;;;;19.36;74.48;98859.97;5450761;32;35491;-67
2023/08/06 07:41:08;;;;;;;2.62;0.65;;;;;;;19.29;76.10;98856.22;5450885;32;34212;-67
2023/08/06 07:44:11;;;;;;;1.67;0.60;;;;;;;18.69;77.68;98855.13;5446990;32;35092;-76
2023/08/06 07:47:14;;;;;;;0.88;0.60;;;;;;;18.72;79.39;98855.63;5427605;32;34390;-79
2023/08/06 07:50:16;;;;;;;0.60;0.52;;;;;;;18.99;78.93;98860.09;5448184;32;36180;-79
2023/08/06 07:53:18;;;;;;;1.50;0.60;;;;;;;19.93;74.54;98857.78;5452025;32;34537;-79
2023/08/06 07:56:21;;;;;;;0.75;0.40;;;;;;;20.04;72.86;98847.84;5454289;32;34619;-78
2023/08/06 07:59:23;;;;;;;0.20;0.20;;;;;;;19.80;73.22;98856.53;5434611;32;35059;-79
2023/08/06 08:02:25;;;;;;;0.55;0.47;;;;;;;19.07;75.92;98854.88;5458567;32;34681;-66
2023/08/06 08:05:27;;;;;;;0.45;0.40;;;;;;;19.30;76.67;98847.25;5454233;32;34599;-68
2023/08/06 08:08:30;;;;;;;0.62;0.40;;;;;;;19.06;76.87;98847.00;5455193;32;34602;-66
2023/08/06 08:11:35;;;;;;;0.37;0.30;;;;;;;18.92;78.82;98849.19;5456272;32;35716;-66
2023/08/06 08:14:37;;;;;;;0.88;0.40;;;;;;;19.12;77.47;98851.72;5453236;32;34550;-78
2023/08/06 08:17:39;;;;;;;2.17;0.50;;;;;;;19.38;74.67;98849.16;5457244;32;34742;-67
2023/08/06 08:20:41;;;;;;;0.80;0.50;;;;;;;19.35;74.71;98858.28;5453750;32;34572;-76
2023/08/06 08:23:43;;;;;;;1.10;0.50;;;;;;;19.73;73.87;98848.31;5451951;32;34553;-79
2023/08/06 08:26:46;;;;;;;0.65;0.37;;;;;;;19.40;72.84;98858.69;5455653;32;34588;-67
2023/08/06 08:29:48;;;;;;;0.30;0.30;;;;;;;19.69;74.20;98868.25;5427518;32;34862;-78
2023/08/06 08:32:50;;;;;;;1.23;0.37;;;;;;;19.63;72.36;98884.88;5437370;32;35371;-77
2023/08/06 08:35:53;;;;;;;1.35;0.68;;;;;;;20.12;70.43;98877.25;5436306;32;34939;-79
2023/08/06 08:38:55;;;;;;;0.82;0.60;;;;;;;19.71;71.21;98871.63;5439286;32;34515;-67
2023/08/06 08:41:57;;;;;;;0.50;0.40;;;;;;;19.65;72.13;98864.25;5450542;32;34862;-67
2023/08/06 08:45:00;;;;;;;4.18;0.40;;;;;;;18.91;74.35;98868.84;5456288;32;34597;-79
2023/08/06 08:48:02;;;;;;;0.45;0.35;;;;;;;19.44;72.03;98875.19;5439295;32;34823;-79
2023/08/06 08:51:06;;;;;;;0.52;0.43;;;;;;;19.85;71.05;98881.72;5442733;32;34255;-66
2023/08/06 08:54:09;;;;;;;0.20;0.20;;;;;;;20.24;67.58;98887.47;5436983;32;35418;-79
2023/08/06 08:57:11;;;;;;;;;;;;;;;19.99;68.85;98883.00;5417729;32;34584;-78
2023/08/06 09:00:14;;;;;;;1.47;0.40;;;;;;;19.54;70.30;98878.59;5440533;32;34817;-66
2023/08/06 09:03:16;;;;;;;2.07;0.50;;;;;;;19.57;70.47;98878.28;5446745;32;34965;-70
2023/08/06 09:06:20;;;;;;;3.78;0.80;;;;;;;19.87;70.36;98870.91;5443314;32;34114;-66
2023/08/06 09:09:26;;;;;;;1.40;0.60;;;;;;;19.96;68.65;98857.44;5448939;32;35346;-67
2023/08/06 09:12:29;;;;;;;0.50;0.50;;;;;;;19.67;69.52;98859.59;5452680;32;34792;-67
2023/08/06 09:15:33;;;;;;;1.50;0.40;;;;;;;19.48;71.03;98863.22;5425907;32;34649;-67
2023/08/06 09:18:38;;;;;;;1.10;0.50;;;;;;;19.87;70.10;98871.72;5426559;32;34339;-79
2023/08/06 09:21:42;;;;;;;0.60;0.60;;;;;;;20.78;65.63;98855.22;5455410;32;35555;-67
2023/08/06 09:24:44;;;;;;;1.27;1.00;;;;;;;20.42;66.85;98854.56;5432227;32;35592;-77
2023/08/06 09:27:47;;;;;;;1.40;0.40;;;;;;;19.91;67.57;98873.09;5454407;32;34577;-69
2023/08/06 09:30:50;;;;;;;2.00;0.57;;;;;;;20.89;64.48;98870.94;5452389;32;33379;-80
2023/08/06 09:33:52;;;;;;;0.73;0.70;;;;;;;20.59;65.09;98879.50;5431414;32;35453;-76
2023/08/06 09:36:54;;;;;;;0.45;0.45;;;;;;;21.08;63.19;98880.53;5453089;32;34170;-68
2023/08/06 09:39:56;;;;;;;0.77;0.77;;;;;;;20.76;65.36;98905.28;5450490;32;35204;-79
2023/08/06 09:42:59;;;;;;;0.70;0.50;;;;;;;19.97;68.71;98904.47;5449869;32;34977;-66
2023/08/06 09:46:13;;;;;;;1.67;0.73;;;;;;;20.36;67.14;98903.22;5437428;32;34764;-76
2023/08/06 09:49:17;;;;;;;1.00;0.50;;;;;;;19.74;69.22;98906.78;5435134;32;34343;-68
2023/08/06 09:52:21;;;;;;;3.23;0.97;;;;;;;20.19;67.59;98900.44;5449718;32;35167;-75
2023/08/06 09:55:25;;;;;;;1.52;0.73;;;;;;;19.81;68.71;98899.00;5434457;32;34907;-74
2023/08/06 09:58:27;;;;;;;2.17;0.90;;;;;;;19.81;66.91;98900.84;5434843;32;35676;-75
2023/08/06 10:01:29;;;;;;;0.68;0.40;;;;;;;19.98;67.13;98914.16;5450196;32;34337;-75
2023/08/06 10:04:32;;;;;;;0.60;0.60;;;;;;;19.33;67.40;98913.56;5436507;32;34418;-71
2023/08/06 10:07:44;;;;;;;3.33;0.83;;;;;;;20.20;65.23;98923.47;5433733;32;35395;-70
2023/08/06 10:10:47;;;;;;;2.90;1.63;;;;;;;19.68;66.40;98926.06;5451077;32;35371;-71
2023/08/06 10:13:51;;;;;;;0.73;0.50;;;;;;;19.52;67.00;98931.22;5433364;32;34708;-75
2023/08/06 10:16:54;;;;;;;1.20;0.70;;;;;;;19.62;68.43;98937.34;5450990;32;35492;-70
2023/08/06 10:19:57;;;;;;;0.40;0.40;;;;;;;20.14;65.47;98940.09;5450943;32;34740;-75
2023/08/06 10:23:02;;;;;;;0.50;0.50;;;;;;;19.59;66.48;98944.81;5434083;32;34779;-71
2023/08/06 10:26:04;;;;;;;1.50;0.60;;;;;;;19.62;67.12;98941.81;5454296;32;34155;-71
2023/08/06 10:29:36;;;;;;;1.50;1.20;;;;;;;19.67;66.78;98956.37;5428014;32;36151;-75
2023/08/06 10:33:02;;;;;;;1.00;0.90;;;;;;;19.42;68.21;98947.28;5448198;32;34970;-74
2023/08/06 10:36:09;;;;;;;1.23;0.70;;;;;;;20.07;65.73;98947.03;5436283;32;34621;-75
2023/08/06 10:39:13;;;;;;;0.70;0.63;;;;;;;19.67;65.69;98956.37;5456059;32;34770;-75
2023/08/06 10:42:31;;;;;;;0.50;0.50;;;;;;;19.22;67.83;98961.72;5456359;32;35211;-75
2023/08/06 10:45:37;;;;;;;3.33;1.50;;;;;;;20.48;64.06;98960.69;5458526;32;34723;-70
2023/08/06 10:48:45;;;;;;;0.63;0.57;;;;;;;19.06;66.87;98965.00;5452379;32;35147;-71
2023/08/06 10:51:47;;;;;;;1.73;0.67;;;;;;;19.74;66.26;98967.25;5454942;32;35211;-74
2023/08/06 10:54:49;;;;;;;1.83;0.50;;;;;;;19.71;65.69;98964.91;5443289;32;34191;-75
2023/08/06 10:57:52;;;;;;;1.05;0.73;;;;;;;19.20;67.43;98961.88;5440653;32;34700;-75
2023/08/06 11:00:56;;;;;;;0.93;0.70;;;;;;;19.27;68.59;98959.44;5436352;32;36415;-72
2023/08/06 11:04:02;;;;;;;1.70;0.80;;;;;;;20.12;65.18;98959.91;5456114;32;34392;-70
2023/08/06 11:07:07;;;;;;;5.80;3.17;;;;;;;19.68;65.17;98951.88;5455147;32;35749;-75
2023/08/06 11:10:11;;;;;;;4.93;2.50;;;;;;;20.25;63.22;98965.69;5457802;32;35290;-71
2023/08/06 11:13:17;;;;;;;0.70;0.70;;;;;;;20.09;64.22;98963.72;5454338;32;34551;-75
2023/08/06 11:16:23;;;;;;;2.30;0.97;;;;;;;19.41;64.98;98976.72;5440201;32;35235;-75
2023/08/06 11:19:25;;;;;;;1.73;0.83;;;;;;;20.21;63.60;98977.66;5457903;32;34661;-76
2023/08/06 11:22:27;;;;;;;2.75;0.88;;;;;;;20.00;63.43;98975.31;5448411;32;35742;-70
2023/08/06 11:25:29;;;;;;;0.60;0.60;;;;;;;20.17;63.51;98971.81;5456278;32;34800;-71
2023/08/06 11:28:31;;;;;;;1.08;0.90;;;;;;;19.64;65.04;98963.81;5456674;32;34305;-74
2023/08/06 11:31:36;;;;;;;1.10;0.88;;;;;;;19.40;66.02;98967.91;5454155;32;34835;-75
2023/08/06 11:34:39;;;;;;;3.90;0.87;;;;;;;20.80;61.31;98960.88;5459256;32;35229;-74
2023/08/06 11:37:45;;;;;;;0.80;0.80;;;;;;;19.59;64.22;98950.13;5436512;32;34218;-71
2023/08/06 11:40:48;;;;;;;1.03;0.63;;;;;;;19.66;64.75;98967.19;5460146;32;35124;-70
2023/08/06 11:43:50;;;;;;;0.85;0.80;;;;;;;19.77;64.34;98971.44;5453532;32;35329;-76
2023/08/06 11:46:55;;;;;;;1.10;1.00;;;;;;;19.79;64.76;98975.66;5451325;32;34597;-76
2023/08/06 11:49:57;;;;;;;2.17;1.00;;;;;;;19.85;64.98;98972.37;5462048;32;35774;-72
2023/08/06 11:53:00;;;;;;;1.67;0.90;;;;;;;20.27;62.87;98982.34;5433121;32;36230;-71
2023/08/06 11:56:03;;;;;;;1.10;0.80;;;;;;;20.15;63.44;98975.59;5448342;32;34481;-75
2023/08/06 11:59:06;;;;;;;2.08;0.80;;;;;;;20.02;63.79;98984.00;5437192;32;34764;-70
2023/08/06 12:02:10;;;;;;;0.80;0.80;;;;;;;20.07;63.19;98983.53;5453767;32;34632;-71
2023/08/06 12:05:14;;;;;;;0.90;0.90;;;;;;;20.12;63.57;98992.75;5444909;32;33488;-75
2023/08/06 12:08:16;;;;;;;0.80;0.80;;;;;;;19.81;64.13;98979.00;5436334;32;34561;-72
2023/08/06 12:11:21;;;;;;;3.83;1.05;;;;;;;20.15;62.62;98981.75;5460048;32;35190;-76
2023/08/06 12:14:24;;;;;;;1.43;1.00;;;;;;;19.39;64.48;98990.22;5442328;32;34911;-72
2023/08/06 12:17:26;;;;;;;;;;;;;;;19.95;63.34;98997.09;5457988;32;34179;-75
2023/08/06 12:20:28;;;;;;;0.80;0.80;;;;;;;19.96;63.61;99001.44;5456919;32;34714;-75
2023/08/06 12:23:33;;;;;;;1.20;0.70;;;;;;;19.87;63.05;98997.03;5450727;32;35045;-73
2023/08/06 12:26:35;;;;;;;0.87;0.70;;;;;;;19.56;63.57;99003.69;5457058;32;35122;-76
2023/08/06 12:29:42;;;;;;;1.00;0.90;;;;;;;19.84;63.70;99008.03;5453155;32;34214;-71
2023/08/06 12:32:44;;;;;;;1.47;0.90;;;;;;;20.40;61.54;99006.78;5439684;32;34586;-76
2023/08/06 12:35:49;;;;;;;1.67;1.13;;;;;;;20.29;61.73;99015.91;5454841;32;34740;-71
2023/08/06 12:38:52;;;;;;;2.90;1.02;;;;;;;19.92;64.22;99021.44;5454410;32;34928;-72
2023/08/06 12:41:57;;;;;;;1.50;1.08;;;;;;;19.97;63.61;99021.81;5433810;32;34774;-74
2023/08/06 12:45:08;;;;;;;2.80;1.30;;;;;;;19.75;64.41;99020.41;5458895;32;34508;-70
2023/08/06 12:48:10;;;;;;;2.25;1.33;;;;;;;20.07;63.73;99021.72;5455692;32;34113;-76
2023/08/06 12:51:12;;;;;;;2.20;1.30;;;;;;;19.86;64.42;99021.19;5456600;32;33965;-71
2023/08/06 12:54:18;;;;;;;2.70;1.20;;;;;;;20.43;62.05;99017.19;5442756;32;34757;-72
2023/08/06 12:57:20;;;;;;;4.83;1.20;;;;;;;20.47;61.42;99021.22;5442656;32;35258;-75
2023/08/06 13:00:23;;;;;;;3.28;0.98;;;;;;;19.86;62.26;99029.19;5446912;32;34527;-75
2023/08/06 13:03:25;;;;;;;2.90;1.15;;;;;;;20.16;61.90;99014.62;5457527;32;34976;-75
2023/08/06 13:06:27;;;;;;;1.67;1.30;;;;;;;19.58;63.46;99013.25;5456800;32;35703;-75
2023/08/06 13:09:30;;;;;;;1.75;1.27;;;;;;;19.71;63.87;99021.72;5460890;32;34158;-71
2023/08/06 13:12:34;;;;;;;2.27;1.13;;;;;;;19.74;64.23;99013.41;5454165;32;35533;-75
2023/08/06 13:15:36;;;;;;;2.25;1.25;;;;;;;20.40;61.99;99014.81;5436102;32;34278;-72
2023/08/06 13:18:38;;;;;;;2.00;1.20;;;;;;;20.01;62.92;99025.81;5453655;32;35291;-72
2023/08/06 13:21:40;;;;;;;3.15;1.33;;;;;;;20.10;62.33;99028.59;5458866;32;34865;-75
2023/08/06 13:24:43;;;;;;;2.83;1.70;;;;;;;19.67;63.16;99024.84;5456253;32;34755;-70
2023/08/06 13:27:45;;;;;;;2.03;1.30;;;;;;;20.35;61.51;99016.25;5450618;32;34722;-70
2023/08/06 13:30:48;;;;;;;3.45;1.40;;;;;;;20.37;61.37;99041.81;5459647;32;35267;-75
2023/08/06 13:33:50;;;;;;;1.67;1.33;;;;;;;20.45;61.37;99028.56;5451883;32;35306;-71
2023/08/06 13:36:52;;;;;;;1.70;1.40;;;;;;;20.46;60.82;99037.41;5443093;32;35242;-75
2023/08/06 13:39:55;;;;;;;2.40;1.40;;;;;;;20.24;62.32;99041.37;5450777;32;34653;-76
2023/08/06 13:42:58;;;;;;;2.65;1.60;;;;;;;19.91;63.74;99042.91;5448001;32;34289;-71
2023/08/06 13:46:02;;;;;;;2.40;1.67;;;;;;;20.04;63.59;99056.72;5460557;32;34962;-77
2023/08/06 13:49:05;;;;;;;2.87;1.73;;;;;;;19.88;64.29;99051.19;5431877;32;34491;-71
2023/08/06 13:52:07;;;;;;;9.25;4.03;;;;;;;19.89;64.94;99053.72;5449826;32;34949;-73
2023/08/06 13:55:23;;;;;;;2.50;1.60;;;;;;;20.02;66.13;99059.50;5456584;32;34816;-71
2023/08/06 13:58:26;;;;;;;2.17;1.65;;;;;;;19.53;68.95;99066.13;5450721;32;34941;-74
2023/08/06 14:01:28;;;;;;;2.30;1.80;;;;;;;19.90;68.75;99067.88;5428418;32;33447;-75
2023/08/06 14:04:52;;;;;;;4.50;2.10;;;;;;;19.43;72.32;99068.84;5441703;32;34500;-72
2023/08/06 14:07:54;;;;;;;2.40;1.90;;;;;;;19.78;69.41;99072.59;5450603;32;34179;-71
2023/08/06 14:10:56;;;;;;;4.37;2.00;;;;;;;19.73;69.78;99073.06;5455776;32;34066;-75
2023/08/06 14:14:00;;;;;;;4.18;1.65;;;;;;;20.02;68.02;99077.34;5443148;32;289864;-76
2023/08/06 14:17:05;;;;;;;1.93;1.73;;;;;;;20.09;66.65;99066.91;5440699;32;34941;-71
2023/08/06 14:20:11;;;;;;;;;;;;;;;20.00;66.44;99080.16;5441436;32;35327;-70
2023/08/06 14:23:13;;;;;;;3.33;1.90;;;;;;;19.82;67.31;99089.13;5447100;32;35024;-76
2023/08/06 14:26:17;;;;;;;3.65;1.92;;;;;;;19.81;66.12;99082.97;5454484;32;34770;-75